Accueil
METAR-TAF:

METAR-TAF

Aéroports :

Saint-Moritz, Suisse

Aéroport de Samedan-Engadin

latitude: 46-32-03N, longitude: 9-53-03E, altitude: 1707 m

Observation

Le bulletin a été fait il y a 23 minutes, à 03:20 UTC
Vent 6 kt de sud/sud-est
Température -1°C
Humidité 86%
Pression 993 hPa
Visibilité: 1500 m
neige

METAR: LSZS 110320Z AUTO 15006KT 1500 SN VV009 M01/M03 Q0993

Heure: 04:43 (03:43 UTC)

Prévision

Le bulletin a été fait il y a 13 heures et 18 minutes, à 14:25 UTC
Prévision valable du 10 à 15 UTC au 10 à 24 UTC
Vent 12 kt de sud/sud-ouest
Visibilité: 4500 m
Ciel couvert à une hauteur de 2000 ft
neige faible
Probabilité 40% :
Temporairement
du 10 à 15 UTC au 10 à 24 UTC
Visibilité: 1500 m
Nuages épars à une hauteur de 500 ft
Nuages fragmentés à une hauteur de 800 ft
neige

TAF: LSZS 101425Z 1015/1024 20012KT 4500 -SN OVC020 TXM02/1024Z PROB40 TEMPO 1015/1024 1500 SN SCT005 BKN008

Observations et prévisions météorologiques de plus de 4000 aéroports (messages METAR et TAF).

Les stations disponibles sont représentées par des disques jaunes et rouges sur la carte.

Passer la souris dessus pour voir le nom de la station.

Cliquer dessus pour voir les observations et prévisions météorologiques.

Pour changer de carte: cliquez sur les boutons verts avec une croix noire pour zoomer, sur le bouton vert avec un tiret pour effectuer un zoom arrière, ou sur les flèches vertes pour les cartes adjacentes.


METAR-TAF: